Time;durP1;ratioP1;P1;durP2;ratioP2;P2;SDS_P1;SDS_P2;PMS_P1;PMS_P2;Temp;Humidity;BMP_temperature;BMP_pressure;BME280_temperature;BME280_humidity;BME280_pressure;Samples;Min_cycle;Max_cycle;Signal;HPM_P1;HPM_P2
2023/01/04 00:01:05;;;;;;;15.00;7.65;;;;;;;4.19;100.00;101427.53;6152708;23;20079;-83
2023/01/04 00:03:32;;;;;;;13.82;7.78;;;;;;;4.91;100.00;101551.31;6152637;23;20025;-84
2023/01/04 00:06:00;;;;;;;13.95;7.35;;;;;;;5.01;100.00;101579.28;6126984;23;20600;-82
2023/01/04 00:08:27;;;;;;;18.50;8.45;;;;;;;3.42;100.00;101300.34;6154139;23;20028;-84
2023/01/04 00:11:05;;;;;;;11.55;7.22;;;;;;;4.87;100.00;101557.50;6153481;23;20558;-83
2023/01/04 00:13:33;;;;;;;14.43;7.90;;;;;;;4.16;100.00;101443.28;6153661;23;20048;-84
2023/01/04 00:16:05;;;;;;;15.43;8.23;;;;;;;4.28;100.00;101451.06;6153901;23;20573;-84
2023/01/04 00:18:35;;;;;;;13.23;7.65;;;;;;;4.61;100.00;101515.63;6155083;23;20021;-83
2023/01/04 00:21:19;;;;;;;16.08;7.95;;;;;;;4.90;100.00;101555.69;6153438;23;20456;-83
2023/01/04 00:23:49;;;;;;;15.27;8.45;;;;;;;4.49;100.00;101497.31;6153950;23;20104;-84
2023/01/04 00:26:19;;;;;;;14.88;7.93;;;;;;;3.68;100.00;101358.72;6154060;23;20120;-83
2023/01/04 00:28:46;;;;;;;16.27;8.82;;;;;;;3.82;100.00;101384.88;6154883;23;20456;-84
2023/01/04 00:31:20;;;;;;;20.75;8.00;;;;;;;4.08;100.00;101413.63;6155226;23;20020;-83
2023/01/04 00:33:47;;;;;;;18.17;8.93;;;;;;;4.46;100.00;101482.47;6155409;23;20017;-82
2023/01/04 00:36:14;;;;;;;17.08;9.55;;;;;;;4.32;100.00;101444.94;6155448;23;20022;-83
2023/01/04 00:38:41;;;;;;;14.65;8.40;;;;;;;4.45;100.00;101451.88;6156373;23;20032;-83
2023/01/04 00:41:10;;;;;;;13.75;8.18;;;;;;;5.06;100.00;101540.75;6166090;23;20021;-83
2023/01/04 00:43:53;;;;;;;16.40;8.55;;;;;;;4.58;100.00;101437.81;6169040;23;20026;-84
2023/01/04 00:46:20;;;;;;;13.88;8.35;;;;;;;4.09;100.00;101334.09;6170539;23;20022;-83
2023/01/04 00:48:46;;;;;;;17.40;9.10;;;;;;;4.78;100.00;101450.81;6174389;23;20052;-82
2023/01/04 00:51:14;;;;;;;16.60;9.10;;;;;;;4.57;100.00;101380.97;6177629;23;20049;-83
2023/01/04 00:53:41;;;;;;;13.85;8.73;;;;;;;5.53;100.00;101522.00;6176578;23;20021;-82
2023/01/04 00:56:07;;;;;;;14.45;9.30;;;;;;;5.47;100.00;101506.31;6176068;23;20025;-82
2023/01/04 00:58:34;;;;;;;20.10;9.45;;;;;;;5.17;100.00;101446.16;6174183;23;20221;-83
2023/01/04 01:01:06;;;;;;;16.45;8.98;;;;;;;5.27;100.00;101438.19;6171934;23;20053;-84
2023/01/04 01:03:33;;;;;;;14.27;8.82;;;;;;;5.63;100.00;101500.03;6171429;23;20025;-82
2023/01/04 01:06:06;;;;;;;14.57;9.15;;;;;;;5.41;100.00;101459.06;6158570;23;20025;-82
2023/01/04 01:08:33;;;;;;;18.60;8.73;;;;;;;5.71;100.00;101504.34;6154957;23;20022;-84
2023/01/04 01:11:06;;;;;;;17.13;8.93;;;;;;;5.69;100.00;101496.47;6153184;23;20044;-84
2023/01/04 01:13:34;;;;;;;14.68;9.55;;;;;;;5.53;100.00;101471.22;6126458;23;20018;-84
2023/01/04 01:16:06;;;;;;;17.30;9.80;;;;;;;5.61;100.00;101483.41;6152774;23;20017;-83
2023/01/04 01:18:34;;;;;;;13.57;8.13;;;;;;;4.62;100.00;101301.38;6152636;23;20558;-83
2023/01/04 01:21:04;;;;;;;13.98;8.93;;;;;;;5.19;100.00;101391.88;6152376;23;20025;-84
2023/01/04 01:23:31;;;;;;;15.32;9.23;;;;;;;5.74;100.00;101488.56;6153104;23;20067;-82
2023/01/04 01:26:02;;;;;;;13.30;9.40;;;;;;;5.72;100.00;101475.41;6151147;23;20041;-83
2023/01/04 01:28:30;;;;;;;15.45;9.15;;;;;;;4.90;100.00;101340.50;6152574;23;20120;-84
2023/01/04 01:30:58;;;;;;;17.85;9.55;;;;;;;4.84;100.00;101316.06;6152214;23;20017;-83
2023/01/04 01:33:32;;;;;;;15.30;9.43;;;;;;;5.53;100.00;101450.19;6152923;23;20028;-83
2023/01/04 01:36:00;;;;;;;15.32;9.95;;;;;;;5.28;100.00;101418.91;6152793;23;20112;-84
2023/01/04 01:38:27;;;;;;;17.42;10.18;;;;;;;5.45;100.00;101465.19;6126360;23;20059;-84
2023/01/04 01:40:54;;;;;;;20.63;10.90;;;;;;;5.08;100.00;101412.09;6151071;23;20017;-84
2023/01/04 01:43:42;;;;;;;16.63;10.20;;;;;;;5.20;100.00;101423.34;6151863;23;20328;-84
2023/01/04 01:46:09;;;;;;;15.50;10.82;;;;;;;4.87;100.00;101376.41;6152248;23;20444;-83
2023/01/04 01:48:36;;;;;;;17.48;10.52;;;;;;;5.18;100.00;101403.28;6152392;23;20021;-83
2023/01/04 01:51:03;;;;;;;18.20;10.80;;;;;;;5.25;100.00;101415.44;6152512;23;20040;-84
2023/01/04 01:53:34;;;;;;;16.00;10.73;;;;;;;5.52;100.00;101441.44;6153087;23;20027;-84
2023/01/04 01:56:02;;;;;;;;;;;;;;;5.69;100.00;101443.91;6155532;23;20017;-84
2023/01/04 01:58:33;;;;;;;17.48;11.10;;;;;;;5.70;100.00;101437.78;6154590;23;19921;-83
2023/01/04 02:01:00;;;;;;;16.17;11.80;;;;;;;5.83;100.00;101446.38;6153841;23;20017;-84
2023/01/04 02:03:45;;;;;;;17.20;11.60;;;;;;;5.38;100.00;101358.41;6153786;23;20040;-84
2023/01/04 02:06:27;;;;;;;16.35;11.15;;;;;;;5.64;100.00;101401.94;6154728;23;20017;-84
2023/01/04 02:08:54;;;;;;;17.90;11.77;;;;;;;5.72;100.00;101417.59;6154750;23;20088;-85
2023/01/04 02:11:21;;;;;;;17.20;11.15;;;;;;;5.24;100.00;101343.66;6153874;23;20101;-84
2023/01/04 02:16:47;;;;;;;19.08;11.65;;;;;;;5.91;100.00;101442.84;6155751;23;20032;-84
2023/01/04 02:19:42;;;;;;;19.30;12.57;;;;;;;5.89;100.00;101441.97;6157378;23;20100;-83
2023/01/04 02:22:37;;;;;;;17.40;11.23;;;;;;;5.87;100.00;101433.19;6160033;23;20014;-84
2023/01/04 02:25:43;;;;;;;16.35;11.45;;;;;;;5.73;100.00;101400.94;6151825;23;20027;-85
2023/01/04 02:28:29;;;;;;;18.60;11.52;;;;;;;6.03;100.00;101433.06;6156333;23;20451;-83
2023/01/04 02:31:31;;;;;;;18.00;11.52;;;;;;;5.97;100.00;101423.50;6154073;23;20455;-83
2023/01/04 02:34:18;;;;;;;16.55;10.60;;;;;;;5.97;100.00;101434.91;6153935;23;20351;-83
2023/01/04 02:36:50;;;;;;;16.38;11.32;;;;;;;5.96;100.00;101416.50;6153741;23;20017;-83
2023/01/04 02:39:46;;;;;;;14.38;10.48;;;;;;;5.85;100.00;101403.44;6154423;23;20080;-84
2023/01/04 02:45:47;;;;;;;16.23;10.55;;;;;;;5.53;100.00;101329.34;6162981;23;20009;-84
2023/01/04 02:51:00;;;;;;;15.32;11.23;;;;;;;6.02;100.00;101399.75;6155055;23;20021;-83
2023/01/04 02:53:39;;;;;;;16.27;11.68;;;;;;;5.90;100.00;101361.34;6154518;23;20017;-84
2023/01/04 02:56:36;;;;;;;18.48;12.18;;;;;;;5.89;100.00;101354.34;6153569;23;20049;-84
2023/01/04 02:59:12;;;;;;;18.10;12.02;;;;;;;6.24;100.00;101390.72;6153265;23;20025;-83
2023/01/04 03:07:53;;;;;;;17.40;11.95;;;;;;;6.24;100.00;101367.06;6153573;23;20025;-84
2023/01/04 03:10:39;;;;;;;19.45;12.30;;;;;;;5.63;100.00;101270.56;6153808;23;20021;-83
2023/01/04 03:13:22;;;;;;;19.80;12.32;;;;;;;6.23;100.00;101362.69;6093054;23;20054;-83
2023/01/04 03:15:57;;;;;;;17.60;12.00;;;;;;;5.55;100.00;101256.66;6094796;23;20026;-83
2023/01/04 03:18:30;;;;;;;18.52;12.05;;;;;;;5.49;100.00;101230.47;6094637;23;20085;-83
2023/01/04 03:21:00;;;;;;;17.33;12.18;;;;;;;4.37;100.00;101041.13;6094360;23;20025;-84
2023/01/04 03:49:38;;;;;;;16.80;12.43;;;;;;;6.07;100.00;101271.75;6066064;23;20022;-84
2023/01/04 03:52:08;;;;;;;18.90;13.48;;;;;;;6.36;100.00;101316.88;6066293;23;20018;-84
2023/01/04 03:54:41;;;;;;;19.85;13.38;;;;;;;6.14;100.00;101266.34;6065003;23;20023;-84
2023/01/04 03:57:10;;;;;;;20.77;14.55;;;;;;;6.43;100.00;101286.97;6065430;23;20406;-83
2023/01/04 03:59:42;;;;;;;18.15;13.20;;;;;;;6.46;100.00;101283.41;6065147;23;20113;-85
2023/01/04 04:02:12;;;;;;;19.92;13.65;;;;;;;5.94;100.00;101193.06;6063712;23;20019;-84
2023/01/04 04:10:12;;;;;;;17.52;12.57;;;;;;;5.86;100.00;101160.72;6065077;23;20023;-83
2023/01/04 04:12:38;;;;;;;16.25;12.70;;;;;;;5.10;100.00;101051.53;6086460;23;20026;-83
2023/01/04 04:15:05;;;;;;;21.75;12.75;;;;;;;5.32;100.00;101086.25;6092256;23;20018;-84
2023/01/04 04:17:32;;;;;;;18.60;12.45;;;;;;;5.58;100.00;101127.88;6093955;23;20642;-83
2023/01/04 04:19:58;;;;;;;18.13;12.38;;;;;;;5.52;100.00;101104.31;6093340;23;20018;-83
2023/01/04 04:22:25;;;;;;;17.92;12.43;;;;;;;5.78;100.00;101159.97;6093730;23;20018;-82
2023/01/04 04:24:52;;;;;;;17.60;11.55;;;;;;;6.25;100.00;101227.63;6094010;23;20032;-83
2023/01/04 04:27:18;;;;;;;18.05;11.73;;;;;;;5.82;100.00;101161.69;6094117;23;20025;-83
2023/01/04 04:29:45;;;;;;;15.77;11.68;;;;;;;6.20;100.00;101236.47;6093955;23;20647;-82
2023/01/04 04:32:11;;;;;;;22.00;11.85;;;;;;;5.99;100.00;101199.09;6094132;23;20019;-83
2023/01/04 04:34:39;;;;;;;17.30;11.70;;;;;;;6.17;100.00;101234.75;6094341;23;20109;-82
2023/01/04 04:37:05;;;;;;;15.32;10.93;;;;;;;5.87;100.00;101191.38;6093832;23;20105;-82
2023/01/04 04:39:32;;;;;;;14.68;11.00;;;;;;;5.21;100.00;101081.13;6094985;23;20022;-80
2023/01/04 04:41:59;;;;;;;15.63;11.52;;;;;;;5.05;100.00;101058.59;6108422;23;20118;-82
2023/01/04 04:44:25;;;;;;;15.80;11.55;;;;;;;6.00;100.00;101207.84;6094782;23;20018;-82
2023/01/04 04:46:52;;;;;;;15.98;11.05;;;;;;;5.78;100.00;101193.28;6094548;23;20014;-81
2023/01/04 04:49:18;;;;;;;15.20;9.80;;;;;;;5.25;100.00;101084.56;6093440;23;20022;-82
2023/01/04 04:51:45;;;;;;;15.50;10.70;;;;;;;5.28;100.00;101072.28;6094718;23;20097;-82
2023/01/04 04:54:17;;;;;;;15.52;11.00;;;;;;;5.95;100.00;101189.53;6094002;23;20022;-81
2023/01/04 04:56:43;;;;;;;14.32;10.20;;;;;;;5.47;100.00;101117.53;6096476;23;20082;-81
2023/01/04 04:59:10;;;;;;;15.80;10.35;;;;;;;5.20;100.00;101084.63;6098971;23;20050;-81
2023/01/04 05:01:36;;;;;;;17.75;10.55;;;;;;;5.44;100.00;101120.19;6094924;23;20015;-82
2023/01/04 05:04:04;;;;;;;17.23;11.18;;;;;;;5.70;100.00;101166.22;6093930;23;20022;-81
2023/01/04 05:06:31;;;;;;;17.58;11.07;;;;;;;5.91;100.00;101203.63;6094637;23;20026;-82
2023/01/04 05:08:57;;;;;;;15.70;10.90;;;;;;;5.89;100.00;101186.13;6094183;23;20041;-81
2023/01/04 05:14:09;;;;;;;16.40;10.95;;;;;;;5.96;100.00;101187.78;6094033;23;20018;-82
2023/01/04 05:16:36;;;;;;;15.88;10.98;;;;;;;5.13;100.00;101051.50;6094014;23;20022;-81
2023/01/04 05:19:03;;;;;;;15.30;9.90;;;;;;;4.85;100.00;100997.66;6094196;23;20026;-81
2023/01/04 05:21:29;;;;;;;14.43;10.77;;;;;;;4.69;100.00;100983.03;6094999;23;20026;-81
2023/01/04 05:23:56;;;;;;;18.17;10.70;;;;;;;5.31;100.00;101086.25;6097285;23;20029;-81
2023/01/04 05:26:47;;;;;;;15.38;10.43;;;;;;;5.75;100.00;101165.28;6095822;23;20069;-82
2023/01/04 05:32:23;;;;;;;14.43;9.80;;;;;;;5.67;100.00;101151.38;6109199;23;20034;-81
2023/01/04 05:34:50;;;;;;;15.45;10.75;;;;;;;5.79;100.00;101161.72;6108844;23;20022;-80
2023/01/04 05:37:16;;;;;;;15.00;10.52;;;;;;;5.32;100.00;101075.75;6107120;23;20083;-80
2023/01/04 05:39:43;;;;;;;14.75;10.02;;;;;;;5.55;100.00;101085.88;6105697;23;20022;-81
2023/01/04 05:42:24;;;;;;;16.25;10.10;;;;;;;5.97;100.00;101152.72;6103459;23;20015;-80
2023/01/04 05:44:52;;;;;;;14.30;10.02;;;;;;;5.43;100.00;101071.19;6102492;23;20029;-82
2023/01/04 05:47:19;;;;;;;12.63;9.55;;;;;;;5.78;100.00;101122.31;6097744;23;20026;-81
2023/01/04 05:49:45;;;;;;;16.95;10.32;;;;;;;5.35;100.00;101043.31;6092896;23;20037;-82
2023/01/04 05:52:12;;;;;;;14.35;10.20;;;;;;;5.63;100.00;101086.66;6092733;23;20015;-81
2023/01/04 05:54:39;;;;;;;16.52;10.23;;;;;;;5.48;100.00;101050.97;6093191;23;20029;-83
2023/01/04 05:57:06;;;;;;;16.85;9.82;;;;;;;5.08;100.00;101008.69;6093497;23;20018;-81
2023/01/04 05:59:32;;;;;;;16.67;10.07;;;;;;;5.32;100.00;101064.38;6093336;23;20271;-81
2023/01/04 06:02:14;;;;;;;15.82;10.52;;;;;;;5.47;100.00;101128.03;6093048;23;20061;-81
2023/01/04 06:04:40;;;;;;;13.60;9.85;;;;;;;4.20;100.00;100905.88;6093571;23;20038;-82
2023/01/04 06:07:07;;;;;;;15.27;10.38;;;;;;;4.31;100.00;100910.94;6092339;23;20027;-82
2023/01/04 06:09:34;;;;;;;15.55;10.70;;;;;;;4.25;100.00;100905.78;6093003;23;20226;-83
2023/01/04 06:12:00;;;;;;;15.45;11.02;;;;;;;5.74;100.00;101144.28;6108879;23;20026;-82
2023/01/04 06:14:27;;;;;;;16.92;10.32;;;;;;;5.31;100.00;101089.75;6122110;23;20018;-83
2023/01/04 06:16:54;;;;;;;18.45;11.43;;;;;;;3.86;100.00;100829.44;6123910;23;20036;-82
2023/01/04 06:19:20;;;;;;;17.80;11.70;;;;;;;5.35;100.00;101085.34;6123484;23;20033;-82
2023/01/04 06:21:47;;;;;;;16.45;11.05;;;;;;;4.29;100.00;100935.44;6122159;23;20098;-83
2023/01/04 06:24:14;;;;;;;16.15;12.02;;;;;;;5.74;100.00;101194.22;6121903;23;20024;-82
2023/01/04 06:26:40;;;;;;;17.20;11.63;;;;;;;5.11;100.00;101092.66;6122288;23;20106;-82
2023/01/04 06:29:07;;;;;;;17.75;12.07;;;;;;;5.46;100.00;101133.31;6122581;23;20112;-82
2023/01/04 06:31:33;;;;;;;18.08;11.65;;;;;;;5.13;100.00;101075.13;6122412;23;20022;-82
2023/01/04 06:34:00;;;;;;;16.25;11.20;;;;;;;4.52;100.00;100976.25;6121941;23;20554;-82
2023/01/04 06:36:27;;;;;;;21.08;12.77;;;;;;;4.18;100.00;100927.72;6128983;23;20065;-80
2023/01/04 06:38:56;;;;;;;20.10;11.23;;;;;;;4.88;100.00;101023.84;6139018;23;20045;-81
2023/01/04 06:41:23;;;;;;;18.05;11.55;;;;;;;4.56;100.00;100951.69;6128178;23;20017;-82
2023/01/04 06:43:50;;;;;;;18.90;11.15;;;;;;;4.81;100.00;100961.84;6128052;23;20022;-81
2023/01/04 06:46:17;;;;;;;15.55;10.60;;;;;;;4.99;100.00;101002.72;6132014;23;20033;-81
2023/01/04 06:48:44;;;;;;;18.60;10.93;;;;;;;5.63;100.00;101089.28;6136609;23;20081;-82
2023/01/04 06:51:11;;;;;;;16.27;10.50;;;;;;;5.53;100.00;101069.28;6133506;23;20121;-83
2023/01/04 06:53:38;;;;;;;18.27;10.98;;;;;;;4.87;100.00;100962.66;6133256;23;20191;-81
2023/01/04 06:56:06;;;;;;;17.15;10.38;;;;;;;4.53;100.00;100912.41;6135271;23;20022;-81
2023/01/04 06:58:35;;;;;;;17.55;11.40;;;;;;;4.69;100.00;100926.16;6132129;23;20022;-83
2023/01/04 07:01:01;;;;;;;16.90;10.68;;;;;;;4.39;100.00;100869.78;6126623;23;20022;-83
2023/01/04 07:03:28;;;;;;;20.15;10.90;;;;;;;5.17;100.00;101015.56;6128250;23;20022;-81
2023/01/04 07:05:55;;;;;;;19.23;11.48;;;;;;;4.59;100.00;100930.66;6130338;23;20022;-82
2023/01/04 07:08:22;;;;;;;18.60;11.38;;;;;;;3.97;100.00;100817.94;6131773;23;20034;-83
2023/01/04 07:10:49;;;;;;;21.65;11.38;;;;;;;4.92;100.00;100991.41;6129918;23;20417;-83
2023/01/04 07:13:16;;;;;;;19.38;10.52;;;;;;;4.06;100.00;100823.94;6125492;23;20018;-81
2023/01/04 07:15:42;;;;;;;19.83;11.45;;;;;;;5.20;100.00;100990.13;6128555;23;20026;-84
2023/01/04 07:18:10;;;;;;;19.58;11.23;;;;;;;5.32;100.00;101001.34;6127409;23;20096;-81
2023/01/04 07:20:37;;;;;;;18.77;11.40;;;;;;;4.11;100.00;100790.63;6126391;23;20041;-82
2023/01/04 07:23:07;;;;;;;23.58;12.45;;;;;;;5.10;100.00;100969.28;6125247;23;20042;-82
2023/01/04 07:25:34;;;;;;;22.15;11.15;;;;;;;5.34;100.00;101010.06;6125939;23;20683;-82
2023/01/04 07:28:01;;;;;;;21.38;11.85;;;;;;;5.06;100.00;100925.59;6124133;23;20300;-82
2023/01/04 07:30:28;;;;;;;19.63;11.63;;;;;;;5.35;100.00;100980.28;6124510;23;20058;-84
2023/01/04 07:32:55;;;;;;;21.08;10.82;;;;;;;4.95;100.00;100891.66;6124330;23;20113;-83
2023/01/04 07:35:23;;;;;;;21.52;12.70;;;;;;;4.10;100.00;100719.91;6124243;23;20018;-82
2023/01/04 07:37:50;;;;;;;18.35;11.05;;;;;;;5.50;100.00;100964.28;6097537;23;20022;-81
2023/01/04 07:40:24;;;;;;;19.98;11.57;;;;;;;6.03;100.00;101071.09;6123736;23;20030;-82
2023/01/04 07:42:56;;;;;;;16.83;11.48;;;;;;;5.92;100.00;101067.81;6123713;23;20064;-82
2023/01/04 07:45:23;;;;;;;18.67;10.73;;;;;;;4.84;100.00;100904.94;6124254;23;20048;-82
2023/01/04 07:47:50;;;;;;;19.08;10.80;;;;;;;5.35;100.00;100993.41;6124030;23;20124;-81
2023/01/04 07:50:16;;;;;;;17.17;10.57;;;;;;;5.89;100.00;101062.59;6123039;23;20029;-80
2023/01/04 07:52:43;;;;;;;22.35;11.07;;;;;;;5.36;100.00;100971.47;6124625;23;20054;-82
2023/01/04 07:55:09;;;;;;;17.27;10.25;;;;;;;5.48;100.00;101001.06;6123982;23;20056;-83
2023/01/04 07:57:36;;;;;;;17.13;9.88;;;;;;;4.94;100.00;100908.28;6123921;23;20392;-82
2023/01/04 08:00:06;;;;;;;16.33;9.80;;;;;;;4.03;100.00;100734.00;6123452;23;20068;-82
2023/01/04 08:02:33;;;;;;;17.80;10.30;;;;;;;4.76;100.00;100851.72;6123491;23;20033;-82
2023/01/04 08:05:01;;;;;;;15.90;9.07;;;;;;;5.62;100.00;100985.06;6123552;23;20022;-82
2023/01/04 08:07:33;;;;;;;14.27;9.43;;;;;;;5.87;100.00;101062.56;6123398;23;20029;-81
2023/01/04 08:10:00;;;;;;;15.48;9.40;;;;;;;5.38;100.00;100973.19;6123293;23;20018;-84
2023/01/04 08:12:29;;;;;;;18.17;9.38;;;;;;;5.79;100.00;101019.81;6122033;23;20117;-83
2023/01/04 08:14:56;;;;;;;16.98;9.32;;;;;;;5.76;100.00;101011.09;6124148;23;20017;-83
2023/01/04 08:17:23;;;;;;;15.98;9.27;;;;;;;5.33;100.00;100917.28;6122277;23;20025;-83
2023/01/04 08:19:49;;;;;;;14.90;8.60;;;;;;;6.45;100.00;101110.69;6121650;23;20689;-83
2023/01/04 08:22:16;;;;;;;15.63;9.15;;;;;;;5.46;100.00;100942.44;6097751;23;20024;-83
2023/01/04 08:24:43;;;;;;;16.45;9.27;;;;;;;5.93;100.00;101007.31;6123428;23;20053;-82
2023/01/04 08:27:09;;;;;;;13.38;8.38;;;;;;;4.80;100.00;100800.06;6123814;23;20024;-83
2023/01/04 08:29:37;;;;;;;15.27;8.95;;;;;;;5.96;100.00;100978.34;6123145;23;20022;-83
2023/01/04 08:32:04;;;;;;;14.02;8.60;;;;;;;6.65;100.00;101084.84;6123901;23;20367;-83
2023/01/04 08:34:30;;;;;;;17.80;8.82;;;;;;;6.02;100.00;100958.06;6138760;23;20048;-82
2023/01/04 08:37:00;;;;;;;14.40;8.07;;;;;;;5.25;100.00;100838.63;6132628;23;20026;-83
2023/01/04 08:39:28;;;;;;;15.73;7.78;;;;;;;6.09;100.00;100992.13;6125052;23;20068;-83
2023/01/04 08:41:55;;;;;;;11.57;7.40;;;;;;;6.19;100.00;100985.78;6123575;23;20045;-83
2023/01/04 08:44:26;;;;;;;13.27;7.60;;;;;;;6.46;100.00;101038.72;6122693;23;20429;-82
2023/01/04 08:46:53;;;;;;;14.20;7.65;;;;;;;6.19;100.00;100990.16;6121793;23;20199;-83
2023/01/04 08:49:21;;;;;;;12.20;6.78;;;;;;;6.55;100.00;101038.56;6122540;23;20050;-83
2023/01/04 08:51:48;;;;;;;10.52;7.03;;;;;;;5.96;100.00;100932.78;6123582;23;20675;-84
2023/01/04 08:54:14;;;;;;;11.43;7.10;;;;;;;5.86;100.00;100908.41;6122451;23;20030;-83
2023/01/04 08:56:41;;;;;;;10.75;6.78;;;;;;;6.37;100.00;101000.34;6123183;23;20475;-83
2023/01/04 08:59:12;;;;;;;13.55;7.00;;;;;;;6.79;100.00;101077.53;6122940;23;20032;-83
2023/01/04 09:01:44;;;;;;;9.48;6.35;;;;;;;5.77;100.00;100895.44;6124233;23;20026;-82
2023/01/04 09:04:11;;;;;;;10.90;6.72;;;;;;;5.97;100.00;100938.03;6122378;23;20020;-82
2023/01/04 09:07:05;;;;;;;9.90;6.38;;;;;;;4.90;100.00;100772.75;6132918;23;20022;-85
2023/01/04 09:09:32;;;;;;;12.40;6.53;;;;;;;6.47;100.00;101029.94;6115734;23;20104;-83
2023/01/04 09:11:58;;;;;;;13.07;6.88;;;;;;;6.51;100.00;101019.31;6122552;23;20051;-84
2023/01/04 09:14:27;;;;;;;9.32;6.22;;;;;;;6.67;100.00;101018.13;6122363;23;20195;-83
2023/01/04 09:16:54;;;;;;;9.52;5.93;;;;;;;7.00;100.00;101060.41;6121903;23;20049;-83
2023/01/04 09:19:21;;;;;;;9.77;5.82;;;;;;;7.07;100.00;101053.25;6122582;23;20025;-83
2023/01/04 09:21:48;;;;;;;10.05;6.22;;;;;;;6.08;100.00;100902.75;6123391;23;20032;-83
2023/01/04 09:24:15;;;;;;;12.02;6.43;;;;;;;5.80;100.00;100858.59;6120523;23;20029;-84
2023/01/04 09:26:41;;;;;;;10.90;5.47;;;;;;;7.04;100.00;101064.72;6122873;23;20093;-84
2023/01/04 09:29:12;;;;;;;12.38;5.70;;;;;;;7.09;100.00;101052.31;6121530;23;20108;-82
2023/01/04 09:31:38;;;;;;;8.95;5.55;;;;;;;7.09;100.00;101041.75;6121639;23;20021;-83
2023/01/04 09:34:05;;;;;;;8.43;5.95;;;;;;;5.88;100.00;100838.31;6121273;23;20018;-84
2023/01/04 09:36:47;;;;;;;8.52;5.55;;;;;;;6.85;100.00;100992.28;6122690;23;20052;-83
2023/01/04 09:39:15;;;;;;;9.73;5.30;;;;;;;7.25;100.00;101035.25;6121278;23;20144;-85
2023/01/04 09:41:56;;;;;;;10.57;5.60;;;;;;;7.26;100.00;101025.56;6122382;23;20169;-83
2023/01/04 09:44:42;;;;;;;7.57;5.15;;;;;;;7.24;100.00;101046.69;6121193;23;20684;-84
2023/01/04 09:47:43;;;;;;;8.95;5.45;;;;;;;6.83;100.00;100970.41;6122080;23;20085;-83
2023/01/04 09:50:13;;;;;;;;;;;;;;;7.26;100.00;101049.28;6124174;23;20042;-82
2023/01/04 09:53:01;;;;;;;9.25;5.05;;;;;;;6.84;100.00;100985.31;6097444;23;19979;-83
2023/01/04 09:55:44;;;;;;;7.07;4.85;;;;;;;6.93;100.00;101001.75;6124030;23;20018;-83
2023/01/04 09:58:30;;;;;;;8.77;5.20;;;;;;;6.99;100.00;101012.16;6122515;23;20090;-83
2023/01/04 10:01:09;;;;;;;10.45;5.05;;;;;;;7.32;100.00;101049.16;6122833;23;20097;-83
2023/01/04 10:03:38;;;;;;;7.05;4.82;;;;;;;6.43;100.00;100894.13;6123401;23;20029;-83
2023/01/04 10:06:11;;;;;;;6.40;4.75;;;;;;;7.33;100.00;101037.72;6123431;23;20097;-82
2023/01/04 10:08:40;;;;;;;8.68;4.50;;;;;;;7.13;100.00;100990.75;6123974;23;20049;-83
2023/01/04 10:11:29;;;;;;;9.30;5.05;;;;;;;7.45;100.00;101041.81;6124433;23;20032;-83
2023/01/04 10:14:12;;;;;;;7.03;4.43;;;;;;;6.64;100.00;100902.38;6124659;23;20018;-82
2023/01/04 10:17:02;;;;;;;7.88;5.30;;;;;;;7.49;100.00;101030.31;6127031;23;20025;-84
2023/01/04 10:20:03;;;;;;;6.88;4.43;;;;;;;6.81;100.00;100893.22;6116507;23;20075;-82
2023/01/04 10:22:57;;;;;;;5.35;3.85;;;;;;;7.64;100.00;101024.66;6143450;23;20521;-82
2023/01/04 10:25:45;;;;;;;5.45;4.00;;;;;;;7.38;100.00;100976.13;6141496;23;20109;-82
2023/01/04 10:28:38;;;;;;;8.52;4.85;;;;;;;7.49;100.00;100988.16;6140565;23;20025;-83
2023/01/04 10:31:08;;;;;;;5.30;3.58;;;;;;;7.69;100.00;101012.25;6112472;23;20026;-81
2023/01/04 10:34:16;;;;;;;8.90;3.67;;;;;;;7.72;100.00;101014.78;6136800;23;20021;-83
2023/01/04 10:36:46;;;;;;;6.13;3.88;;;;;;;7.19;100.00;100903.72;6126039;23;20459;-83
2023/01/04 10:39:17;;;;;;;5.60;3.35;;;;;;;7.55;100.00;100964.28;6123857;23;20680;-83
2023/01/04 10:41:49;;;;;;;;;;;;;;;7.78;100.00;100987.41;6125413;23;20026;-82
2023/01/04 10:44:51;;;;;;;5.70;3.70;;;;;;;7.49;100.00;100943.34;6122698;23;19948;-82
2023/01/04 10:47:42;;;;;;;8.18;3.58;;;;;;;7.90;100.00;100995.84;6123714;23;20108;-82
2023/01/04 10:50:33;;;;;;;4.75;3.47;;;;;;;7.21;100.00;100891.38;6123500;23;20041;-83
2023/01/04 10:53:02;;;;;;;;;;;;;;;7.89;100.00;100993.25;6129413;23;20037;-83
2023/01/04 10:55:40;;;;;;;7.00;3.95;;;;;;;7.73;100.00;100977.84;6123465;23;19984;-84
2023/01/04 10:58:52;;;;;;;7.50;3.65;;;;;;;7.93;100.00;100979.97;6101697;23;20092;-82
2023/01/04 11:01:30;;;;;;;5.82;3.92;;;;;;;7.01;100.00;100831.31;6122869;23;20025;-83
2023/01/04 11:04:11;;;;;;;8.50;3.97;;;;;;;7.59;100.00;100926.38;6123399;23;20473;-83
2023/01/04 11:06:43;;;;;;;7.57;4.32;;;;;;;7.99;100.00;100974.53;6124334;23;20121;-81
2023/01/04 11:09:17;;;;;;;7.53;4.40;;;;;;;7.72;100.00;100928.66;6123954;23;20028;-82
2023/01/04 11:11:53;;;;;;;6.55;4.15;;;;;;;7.43;100.00;100896.06;6122926;23;20080;-82
2023/01/04 11:14:21;;;;;;;6.05;4.00;;;;;;;7.95;100.00;100990.47;6124145;23;20555;-82
2023/01/04 11:16:50;;;;;;;4.57;3.40;;;;;;;7.94;100.00;100971.16;6123491;23;20028;-83
2023/01/04 11:19:17;;;;;;;7.88;3.88;;;;;;;7.66;100.00;100923.56;6123925;23;20558;-82
2023/01/04 11:21:57;;;;;;;7.43;3.88;;;;;;;7.79;100.00;100942.56;6124455;23;20026;-83
2023/01/04 11:24:29;;;;;;;8.70;3.77;;;;;;;7.30;100.00;100843.72;6124462;23;20022;-83
2023/01/04 11:27:04;;;;;;;3.72;3.20;;;;;;;8.04;100.00;100950.66;6123743;23;20022;-82
2023/01/04 11:29:43;;;;;;;8.32;4.72;;;;;;;7.26;100.00;100818.34;6123183;23;20025;-82
2023/01/04 11:32:17;;;;;;;5.90;3.28;;;;;;;7.44;100.00;100831.94;6122755;23;20102;-82
2023/01/04 11:34:50;;;;;;;7.05;3.55;;;;;;;7.32;100.00;100812.06;6123475;23;20084;-82
2023/01/04 11:37:32;;;;;;;3.85;3.20;;;;;;;7.98;100.00;100912.16;6123466;23;20053;-83
2023/01/04 11:40:17;;;;;;;6.65;4.00;;;;;;;8.17;100.00;100941.50;6123586;23;20097;-83
2023/01/04 11:42:47;;;;;;;5.60;3.25;;;;;;;7.46;100.00;100803.78;6124002;23;20022;-82
2023/01/04 11:45:26;;;;;;;5.20;3.20;;;;;;;8.16;100.00;100938.91;6123827;23;20052;-83
2023/01/04 11:47:55;;;;;;;6.78;4.30;;;;;;;8.23;100.00;100921.97;6123544;23;20029;-82
2023/01/04 11:50:38;;;;;;;3.65;2.72;;;;;;;7.10;100.00;100721.34;6123626;23;20017;-82
2023/01/04 11:53:32;;;;;;;4.05;3.03;;;;;;;6.82;100.00;100660.69;6124103;23;20345;-82
2023/01/04 11:56:07;;;;;;;5.13;3.00;;;;;;;7.41;100.00;100761.72;6123937;23;20022;-83
2023/01/04 11:58:34;;;;;;;3.80;2.95;;;;;;;7.34;100.00;100739.97;6123032;23;20022;-83
2023/01/04 12:01:01;;;;;;;6.18;3.90;;;;;;;7.38;100.00;100754.81;6124086;23;20097;-83
2023/01/04 12:03:38;;;;;;;4.90;2.60;;;;;;;7.63;100.00;100780.44;6122770;23;20352;-83
2023/01/04 12:06:29;;;;;;;6.93;3.95;;;;;;;7.19;100.00;100698.28;6123517;23;20049;-82
2023/01/04 12:08:56;;;;;;;5.93;3.05;;;;;;;8.15;100.00;100861.53;6124445;23;20026;-82
2023/01/04 12:11:33;;;;;;;5.97;3.78;;;;;;;8.33;100.00;100868.94;6123016;23;20054;-83
2023/01/04 12:14:01;;;;;;;6.13;4.40;;;;;;;8.09;100.00;100820.38;6122695;23;20105;-84
2023/01/04 12:16:36;;;;;;;5.78;3.17;;;;;;;8.55;100.00;100879.69;6123846;23;20028;-84
2023/01/04 12:19:03;;;;;;;4.80;2.95;;;;;;;8.52;100.00;100874.50;6123786;23;20039;-82
2023/01/04 12:21:33;;;;;;;5.38;3.13;;;;;;;8.54;100.00;100872.69;6123359;23;20017;-83
2023/01/04 12:24:04;;;;;;;3.70;2.75;;;;;;;7.74;100.00;100746.72;6123169;23;20018;-82
2023/01/04 12:26:32;;;;;;;4.78;2.75;;;;;;;8.59;100.00;100876.06;6123050;23;20021;-82
2023/01/04 12:29:21;;;;;;;6.80;3.70;;;;;;;8.14;100.00;100791.22;6136998;23;20058;-81
2023/01/04 12:31:50;;;;;;;9.18;4.68;;;;;;;7.55;100.00;100691.09;6119031;23;20053;-84